Time;durP1;ratioP1;P1;durP2;ratioP2;P2;SDS_P1;SDS_P2;PMS_P1;PMS_P2;Temp;Humidity;BMP_temperature;BMP_pressure;BME280_temperature;BME280_humidity;BME280_pressure;Samples;Min_cycle;Max_cycle;Signal;HPM_P1;HPM_P2
2022/11/13 00:01:25;;;;;;;5.40;3.90;;;;;;;8.43;87.18;100226.68;102086;1301;75619;-23
2022/11/13 00:04:11;;;;;;;7.10;4.20;;;;;;;8.17;87.44;100225.83;102127;1300;61893;-23
2022/11/13 00:06:56;;;;;;;5.60;4.10;;;;;;;8.03;88.48;100228.08;102099;1301;61969;-23
2022/11/13 00:09:44;;;;;;;5.00;3.80;;;;;;;7.81;89.46;100226.79;102118;1293;76407;-23
2022/11/13 00:12:29;;;;;;;5.50;3.80;;;;;;;7.98;90.06;100228.70;102179;1301;76674;-24
2022/11/13 00:15:15;;;;;;;6.80;4.50;;;;;;;8.23;88.51;100231.40;102170;1300;75199;-23
2022/11/13 00:18:01;;;;;;;9.00;4.40;;;;;;;8.02;89.08;100235.92;102218;1301;62995;-23
2022/11/13 00:20:47;;;;;;;4.90;2.70;;;;;;;7.88;89.39;100228.70;102200;1296;61818;-23
2022/11/13 00:23:34;;;;;;;4.40;3.20;;;;;;;7.77;90.29;100228.58;102199;1286;75473;-23
2022/11/13 00:26:25;;;;;;;7.30;4.60;;;;;;;8.06;88.83;100229.84;102134;1300;76804;-24
2022/11/13 00:29:10;;;;;;;5.20;3.40;;;;;;;7.92;89.03;100225.90;102097;1295;75352;-23
2022/11/13 00:31:56;;;;;;;7.00;3.50;;;;;;;7.82;89.50;100230.21;102207;1301;61848;-23
2022/11/13 00:34:42;;;;;;;5.00;3.20;;;;;;;7.62;90.50;100230.33;102143;1301;61698;-23
2022/11/13 00:37:33;;;;;;;6.40;4.10;;;;;;;7.95;89.27;100224.72;102199;1299;76329;-23
2022/11/13 00:40:19;;;;;;;5.80;4.10;;;;;;;7.87;89.71;100222.16;102212;1295;76741;-22
2022/11/13 00:43:04;;;;;;;5.60;3.60;;;;;;;7.80;90.09;100221.85;102205;1301;75315;-23
2022/11/13 00:45:50;;;;;;;4.80;2.80;;;;;;;7.76;90.49;100217.52;102221;1298;63765;-22
2022/11/13 00:48:36;;;;;;;6.30;3.80;;;;;;;8.04;89.40;100219.55;102256;1299;63184;-22
2022/11/13 00:51:22;;;;;;;4.40;2.80;;;;;;;8.01;89.34;100218.02;102117;1294;76580;-22
2022/11/13 00:54:07;;;;;;;5.60;3.70;;;;;;;7.97;89.09;100221.11;102199;1294;76892;-22
2022/11/13 00:56:53;;;;;;;3.40;2.60;;;;;;;7.85;90.23;100219.84;102152;1301;75604;-22
2022/11/13 00:59:38;;;;;;;4.10;2.60;;;;;;;8.17;88.77;100220.98;102158;1299;61855;-22
2022/11/13 01:02:24;;;;;;;3.30;2.20;;;;;;;8.28;88.23;100221.27;102190;1301;62744;-22
2022/11/13 01:05:10;;;;;;;6.80;3.90;;;;;;;8.15;88.56;100219.35;102222;1301;75253;-22
2022/11/13 01:07:56;;;;;;;6.60;3.20;;;;;;;7.87;89.59;100220.96;102242;1295;76715;-22
2022/11/13 01:10:46;;;;;;;4.00;2.90;;;;;;;7.99;90.19;100217.59;102196;1294;74197;-22
2022/11/13 01:13:39;;;;;;;4.50;2.90;;;;;;;8.21;88.17;100215.88;102214;1301;61794;-22
2022/11/13 01:16:28;;;;;;;4.30;3.00;;;;;;;8.22;88.36;100212.60;101939;1299;63033;-22
2022/11/13 01:19:14;;;;;;;5.40;3.70;;;;;;;8.09;88.54;100211.52;101959;1304;75194;-22
2022/11/13 01:21:59;;;;;;;5.50;2.90;;;;;;;7.90;89.55;100209.58;102030;1300;75851;-22
2022/11/13 01:24:45;;;;;;;8.00;2.70;;;;;;;8.11;88.87;100213.52;102011;1299;74207;-22
2022/11/13 01:27:31;;;;;;;8.30;3.70;;;;;;;8.28;87.87;100210.36;102038;1301;62858;-22
2022/11/13 01:30:16;;;;;;;6.60;4.50;;;;;;;8.17;87.97;100208.52;101974;1291;62699;-22
2022/11/13 01:33:02;;;;;;;4.60;2.80;;;;;;;7.90;89.03;100210.80;102045;1302;75468;-22
2022/11/13 01:35:48;;;;;;;5.30;3.40;;;;;;;7.92;89.68;100212.59;102174;1294;74936;-22
2022/11/13 01:38:34;;;;;;;6.10;3.60;;;;;;;8.32;87.64;100212.04;101979;1294;74552;-22
2022/11/13 01:41:24;;;;;;;5.30;3.70;;;;;;;8.11;87.69;100211.24;101929;1301;62758;-23
2022/11/13 01:44:14;;;;;;;8.20;4.60;;;;;;;7.87;89.18;100209.58;101935;1302;61772;-22
2022/11/13 01:46:59;;;;;;;6.90;4.10;;;;;;;7.74;90.04;100211.59;101899;1301;76453;-22
2022/11/13 01:49:45;;;;;;;6.60;3.60;;;;;;;8.03;88.59;100207.83;101965;1301;75744;-23
2022/11/13 01:52:34;;;;;;;6.30;4.50;;;;;;;8.13;87.72;100207.52;101957;1300;75182;-23
2022/11/13 01:55:19;;;;;;;8.00;4.40;;;;;;;8.06;88.13;100210.80;101878;1297;62516;-23
2022/11/13 01:58:06;;;;;;;8.60;3.30;;;;;;;7.82;89.00;100211.39;101945;1295;62746;-23
2022/11/13 02:00:51;;;;;;;6.10;3.30;;;;;;;7.91;89.11;100205.71;101974;1301;76261;-23
2022/11/13 02:03:37;;;;;;;5.40;3.30;;;;;;;8.22;87.21;100203.94;101960;1302;75904;-23
2022/11/13 02:06:24;;;;;;;5.20;3.80;;;;;;;8.03;87.56;100207.17;101939;1292;75410;-24
2022/11/13 02:09:10;;;;;;;5.00;3.20;;;;;;;7.91;88.03;100204.84;102003;1302;61845;-27
2022/11/13 02:11:55;;;;;;;3.30;2.40;;;;;;;7.93;88.62;100203.20;102177;1300;63495;-25
2022/11/13 02:14:46;;;;;;;4.70;2.90;;;;;;;8.46;86.38;100200.95;102034;1294;76267;-28
2022/11/13 02:17:34;;;;;;;3.80;2.90;;;;;;;8.61;84.31;100195.81;102005;1294;75811;-27
2022/11/13 02:20:43;;;;;;;4.30;2.90;;;;;;;8.46;84.99;100200.23;102068;1297;72879;-30
2022/11/13 02:23:41;;;;;;;5.00;3.30;;;;;;;8.11;86.51;100203.27;102204;1295;62849;-25
2022/11/13 02:26:27;;;;;;;3.50;2.30;;;;;;;7.94;87.51;100207.99;102120;1300;61739;-24
2022/11/13 02:29:13;;;;;;;4.30;2.40;;;;;;;8.30;85.87;100200.02;102134;1301;76163;-24
2022/11/13 02:31:59;;;;;;;3.70;2.90;;;;;;;8.57;84.14;100194.48;102037;1302;76847;-24
2022/11/13 02:34:44;;;;;;;4.50;2.90;;;;;;;8.39;84.86;100198.33;102180;1301;74168;-24
2022/11/13 02:37:30;;;;;;;5.50;3.10;;;;;;;8.17;85.66;100197.27;102204;1302;62851;-25
2022/11/13 02:40:17;;;;;;;4.60;3.10;;;;;;;8.01;86.81;100200.70;102180;1301;62900;-25
2022/11/13 02:43:02;;;;;;;4.40;2.50;;;;;;;8.28;85.81;100198.42;101947;1301;76767;-24
2022/11/13 02:45:48;;;;;;;5.00;3.30;;;;;;;8.43;84.97;100190.21;101992;1301;76811;-25
2022/11/13 02:48:34;;;;;;;5.00;2.80;;;;;;;8.23;85.60;100186.95;102056;1294;75096;-24
2022/11/13 02:51:20;;;;;;;3.90;2.50;;;;;;;8.01;86.56;100193.23;102093;1301;62648;-24
2022/11/13 02:54:06;;;;;;;5.10;2.90;;;;;;;7.79;88.02;100192.31;102031;1301;61729;-25
2022/11/13 02:56:51;;;;;;;4.50;2.50;;;;;;;8.09;87.13;100189.06;102113;1301;76237;-24
2022/11/13 02:59:37;;;;;;;4.40;3.10;;;;;;;8.25;86.22;100193.07;102199;1294;76767;-24
2022/11/13 03:02:23;;;;;;;5.50;3.00;;;;;;;8.21;86.20;100193.59;102147;1294;74884;-25
2022/11/13 03:05:08;;;;;;;5.10;3.20;;;;;;;7.99;87.00;100196.45;102010;1298;61784;-24
2022/11/13 03:07:58;;;;;;;5.20;3.20;;;;;;;7.99;87.22;100196.83;101973;1301;61901;-24
2022/11/13 03:10:44;;;;;;;4.50;2.80;;;;;;;8.38;85.59;100195.48;102210;1294;76307;-26
2022/11/13 03:13:30;;;;;;;3.70;2.50;;;;;;;8.64;84.29;100187.52;101997;1297;75618;-24
2022/11/13 03:16:16;;;;;;;4.30;3.40;;;;;;;8.24;85.32;100187.41;102052;1285;74437;-24
2022/11/13 03:19:02;;;;;;;5.00;3.30;;;;;;;7.93;86.87;100188.83;101988;1294;61823;-26
2022/11/13 03:21:48;;;;;;;5.10;3.00;;;;;;;7.77;87.83;100185.35;102083;1294;62729;-24
2022/11/13 03:24:34;;;;;;;4.90;2.70;;;;;;;8.10;87.46;100189.17;101174;1301;1308065;-24
2022/11/13 03:27:20;;;;;;;5.00;3.20;;;;;;;8.23;86.29;100188.98;102097;1299;76734;-24
2022/11/13 03:30:06;;;;;;;6.40;4.00;;;;;;;8.01;87.38;100190.17;102121;1293;75258;-24
2022/11/13 03:32:56;;;;;;;5.00;3.20;;;;;;;7.88;87.73;100195.64;101875;1295;62957;-24
2022/11/13 03:35:42;;;;;;;5.30;3.20;;;;;;;7.75;88.88;100191.65;101928;1296;62841;-24
2022/11/13 03:38:32;;;;;;;4.50;2.60;;;;;;;8.17;87.04;100185.48;102070;1295;75203;-25
2022/11/13 03:41:18;;;;;;;4.90;3.10;;;;;;;8.20;86.47;100192.45;101969;1302;75972;-24
2022/11/13 03:44:04;;;;;;;4.80;3.30;;;;;;;7.98;87.19;100193.77;102079;1302;75123;-25
2022/11/13 03:46:49;;;;;;;5.60;2.70;;;;;;;7.64;88.82;100198.43;101978;1301;62864;-24
2022/11/13 03:49:35;;;;;;;5.50;3.30;;;;;;;7.81;88.87;100205.56;102102;1294;63305;-24
2022/11/13 03:52:21;;;;;;;5.60;3.10;;;;;;;8.08;87.15;100209.33;102143;1294;76372;-24
2022/11/13 03:55:07;;;;;;;4.30;3.00;;;;;;;8.13;87.06;100209.92;102093;1287;75910;-24
2022/11/13 03:57:52;;;;;;;6.80;3.30;;;;;;;7.87;87.64;100205.58;101989;1301;75236;-24
2022/11/13 04:00:39;;;;;;;5.30;2.90;;;;;;;7.69;89.19;100216.70;102012;1301;61845;-24
2022/11/13 04:03:24;;;;;;;5.60;3.10;;;;;;;8.03;88.34;100220.48;101963;1302;62883;-24
2022/11/13 04:06:10;;;;;;;4.20;2.70;;;;;;;8.28;85.99;100216.60;102114;1298;74913;-24
2022/11/13 04:08:56;;;;;;;4.00;2.80;;;;;;;7.97;87.18;100217.33;101976;1295;75737;-25
2022/11/13 04:11:42;;;;;;;5.00;3.00;;;;;;;7.93;87.61;100212.88;102090;1301;75102;-24
2022/11/13 04:14:28;;;;;;;6.30;4.00;;;;;;;7.70;88.78;100207.48;102198;1301;64462;-24
2022/11/13 04:17:13;;;;;;;6.30;3.90;;;;;;;8.12;87.60;100204.42;102162;1294;61887;-24
2022/11/13 04:19:59;;;;;;;7.10;3.60;;;;;;;8.12;86.94;100198.24;102120;1294;76446;-24
2022/11/13 04:22:45;;;;;;;5.10;3.00;;;;;;;7.99;87.32;100202.53;102116;1301;75744;-24
2022/11/13 04:25:31;;;;;;;5.10;3.40;;;;;;;7.87;88.24;100199.19;102211;1294;73788;-24
2022/11/13 04:28:16;;;;;;;5.50;3.00;;;;;;;7.61;89.57;100203.95;102205;1295;64470;-24
2022/11/13 04:31:02;;;;;;;6.10;3.90;;;;;;;7.99;88.23;100199.95;102231;1298;62977;-24
2022/11/13 04:33:48;;;;;;;5.70;3.90;;;;;;;8.21;87.14;100196.53;102208;1294;76356;-24
2022/11/13 04:36:33;;;;;;;5.80;3.40;;;;;;;7.95;87.87;100199.82;102222;1300;76824;-24
2022/11/13 04:39:19;;;;;;;5.60;3.60;;;;;;;7.70;88.97;100202.64;102128;1301;75280;-24
2022/11/13 04:45:09;;;;;;;5.30;3.30;;;;;;;8.06;87.74;100197.52;102315;1297;62001;-24
2022/11/13 04:47:55;;;;;;;4.60;3.30;;;;;;;8.08;86.91;100203.65;102215;1294;75333;-24
2022/11/13 04:50:41;;;;;;;9.90;4.20;;;;;;;7.88;87.82;100206.74;102214;1301;76619;-24
2022/11/13 04:53:26;;;;;;;4.80;3.20;;;;;;;7.69;88.77;100207.69;102234;1294;75355;-24
2022/11/13 04:56:12;;;;;;;6.80;3.50;;;;;;;7.91;88.37;100213.69;102218;1302;62948;-24
2022/11/13 04:58:58;;;;;;;4.80;3.60;;;;;;;8.21;86.85;100210.38;102167;1301;62903;-24
2022/11/13 05:01:43;;;;;;;4.90;3.50;;;;;;;7.92;87.85;100213.94;102230;1301;75285;-24
2022/11/13 05:04:30;;;;;;;5.90;4.30;;;;;;;7.90;88.22;100213.03;102234;1302;76766;-24
2022/11/13 05:07:15;;;;;;;5.20;3.10;;;;;;;7.61;89.37;100214.16;102259;1302;74208;-24
2022/11/13 05:10:01;;;;;;;6.20;3.20;;;;;;;7.99;88.15;100220.86;101989;1301;62787;-24
2022/11/13 05:12:47;;;;;;;6.70;3.60;;;;;;;8.14;86.76;100221.31;102009;1301;63130;-24
2022/11/13 05:15:33;;;;;;;5.80;3.80;;;;;;;7.96;87.50;100225.16;102082;1301;75453;-25
2022/11/13 05:18:19;;;;;;;5.70;3.90;;;;;;;7.76;88.46;100218.27;102168;1295;75693;-26
2022/11/13 05:21:05;;;;;;;5.30;3.90;;;;;;;7.60;89.86;100213.02;102212;1294;74232;-27
2022/11/13 05:23:51;;;;;;;5.30;3.80;;;;;;;8.08;88.00;100212.77;102103;1300;62996;-26
2022/11/13 05:26:38;;;;;;;7.70;4.20;;;;;;;8.17;86.68;100208.67;102005;1294;62930;-26
2022/11/13 05:29:23;;;;;;;5.30;3.70;;;;;;;7.84;88.24;100215.90;102032;1302;76518;-25
2022/11/13 05:32:09;;;;;;;7.50;4.90;;;;;;;7.73;88.76;100225.97;102235;1294;75762;-27
2022/11/13 05:34:54;;;;;;;6.70;3.40;;;;;;;7.66;89.50;100223.91;102205;1294;74264;-26
2022/11/13 05:37:40;;;;;;;7.60;4.20;;;;;;;8.10;87.59;100227.89;102200;1294;62823;-25
2022/11/13 05:40:25;;;;;;;4.80;3.70;;;;;;;8.07;86.92;100223.24;102309;1294;61237;-23
2022/11/13 05:43:11;;;;;;;5.90;3.90;;;;;;;7.93;87.91;100218.42;102224;1301;76480;-23
2022/11/13 05:46:05;;;;;;;6.90;4.70;;;;;;;7.66;89.09;100218.75;102243;1299;75775;-23
2022/11/13 05:48:53;;;;;;;9.90;4.20;;;;;;;7.75;89.25;100220.90;102022;1301;75111;-23
2022/11/13 05:51:38;;;;;;;8.30;5.00;;;;;;;8.04;87.87;100227.50;101996;1301;62774;-23
2022/11/13 05:54:24;;;;;;;7.20;4.50;;;;;;;8.01;87.55;100228.40;102108;1301;63232;-23
2022/11/13 05:57:10;;;;;;;6.90;4.20;;;;;;;7.68;89.11;100230.75;102224;1294;75367;-23
2022/11/13 05:59:55;;;;;;;5.60;3.80;;;;;;;7.73;89.51;100224.96;102211;1294;75817;-23
2022/11/13 06:02:41;;;;;;;9.00;5.10;;;;;;;8.00;88.32;100228.44;102186;1302;74218;-23
2022/11/13 06:05:27;;;;;;;6.40;3.90;;;;;;;8.18;87.07;100230.80;102030;1300;61943;-23
2022/11/13 06:08:12;;;;;;;9.30;5.00;;;;;;;7.92;87.92;100229.35;102238;1294;63153;-25
2022/11/13 06:11:07;;;;;;;6.10;3.70;;;;;;;7.74;88.57;100232.84;102159;1295;75697;-25
2022/11/13 06:13:54;;;;;;;8.70;4.70;;;;;;;7.91;88.37;100231.81;102018;1294;74666;-25
2022/11/13 06:16:40;;;;;;;6.10;4.10;;;;;;;8.18;86.99;100233.34;101987;1302;74197;-25
2022/11/13 06:19:26;;;;;;;5.30;3.30;;;;;;;8.02;87.17;100237.64;102059;1301;61834;-24
2022/11/13 06:22:11;;;;;;;6.50;4.50;;;;;;;7.90;87.77;100232.91;102160;1295;61838;-23
2022/11/13 06:24:57;;;;;;;8.50;4.70;;;;;;;7.56;89.83;100230.98;102072;1300;76263;-24
2022/11/13 06:27:43;;;;;;;8.40;5.10;;;;;;;8.10;88.24;100228.76;102162;1301;76716;-23
2022/11/13 06:30:29;;;;;;;11.00;5.10;;;;;;;8.00;87.48;100237.40;102126;1294;75425;-23
2022/11/13 06:33:14;;;;;;;7.60;4.10;;;;;;;7.81;88.25;100233.17;102082;1294;62849;-23
2022/11/13 06:36:14;;;;;;;6.20;4.10;;;;;;;7.74;88.95;100229.23;102055;1298;62845;-23
2022/11/13 06:39:00;;;;;;;7.40;3.80;;;;;;;8.22;87.11;100240.09;102055;1301;75321;-23
2022/11/13 06:41:46;;;;;;;5.70;4.30;;;;;;;8.39;85.87;100240.56;102216;1295;76637;-24
2022/11/13 06:44:31;;;;;;;6.30;4.50;;;;;;;8.24;86.10;100246.55;102256;1302;75540;-24
2022/11/13 06:47:17;;;;;;;8.00;3.80;;;;;;;7.96;87.12;100236.57;102181;1299;62846;-24
2022/11/13 06:50:04;;;;;;;7.20;4.50;;;;;;;7.96;88.12;100238.34;102040;1302;61836;-24
2022/11/13 06:52:49;;;;;;;5.50;4.10;;;;;;;8.39;85.95;100237.33;102004;1299;76279;-24
2022/11/13 06:55:35;;;;;;;6.80;3.50;;;;;;;8.41;85.52;100242.88;102114;1301;75758;-24
2022/11/13 06:58:21;;;;;;;8.80;4.80;;;;;;;8.27;86.39;100244.83;102075;1298;74158;-24
2022/11/13 07:01:07;;;;;;;7.30;3.80;;;;;;;7.84;87.86;100243.61;102140;1301;62143;-23
2022/11/13 07:03:53;;;;;;;6.80;3.20;;;;;;;7.93;88.27;100242.94;102017;1301;63220;-24
2022/11/13 07:06:39;;;;;;;6.00;4.20;;;;;;;8.15;86.93;100238.35;102052;1301;76617;-24
2022/11/13 07:09:25;;;;;;;8.10;4.50;;;;;;;8.07;86.91;100243.63;101981;1294;77143;-24
2022/11/13 07:12:10;;;;;;;7.80;4.30;;;;;;;7.90;88.02;100250.52;102031;1294;75183;-24
2022/11/13 07:14:56;;;;;;;5.70;3.40;;;;;;;7.91;88.66;100249.46;102154;1299;63331;-24
2022/11/13 07:17:42;;;;;;;7.30;3.70;;;;;;;8.30;87.06;100247.96;102130;1295;62827;-24
2022/11/13 07:20:28;;;;;;;7.10;4.80;;;;;;;8.24;86.52;100251.55;102227;1301;75244;-24
2022/11/13 07:23:14;;;;;;;6.80;4.50;;;;;;;8.24;86.62;100251.58;101982;1304;76824;-24
2022/11/13 07:26:00;;;;;;;5.40;3.70;;;;;;;7.93;88.09;100256.61;102208;1301;74270;-23
2022/11/13 07:28:46;;;;;;;6.50;3.90;;;;;;;7.85;88.93;100254.05;102214;1300;62756;-24
2022/11/13 07:31:32;;;;;;;6.00;3.70;;;;;;;8.48;86.47;100249.45;102055;1300;62876;-24
2022/11/13 07:34:17;;;;;;;8.40;4.50;;;;;;;8.38;86.18;100249.13;102019;1288;76412;-24
2022/11/13 07:37:05;;;;;;;6.50;4.50;;;;;;;8.12;87.12;100246.81;102054;1301;76787;-24
2022/11/13 07:39:51;;;;;;;5.60;3.50;;;;;;;8.10;88.25;100246.22;102133;1301;74128;-24
2022/11/13 07:42:37;;;;;;;5.40;3.70;;;;;;;8.45;87.23;100243.36;102253;1299;61855;-24
2022/11/13 07:45:23;;;;;;;5.90;4.50;;;;;;;8.73;85.67;100239.48;102079;1301;62597;-24
2022/11/13 07:48:09;;;;;;;5.60;4.10;;;;;;;8.69;85.64;100240.04;102210;1302;76477;-24
2022/11/13 07:50:59;;;;;;;6.80;4.30;;;;;;;8.47;86.91;100235.70;102182;1302;76714;-26
2022/11/13 07:53:45;;;;;;;5.80;3.60;;;;;;;8.28;88.00;100235.09;101972;1299;74104;-26
2022/11/13 07:56:31;;;;;;;4.40;3.20;;;;;;;8.79;86.29;100226.52;102232;1302;61804;-25
2022/11/13 07:59:16;;;;;;;4.50;3.20;;;;;;;8.66;85.93;100226.56;102216;1299;61875;-25
2022/11/13 08:02:02;;;;;;;6.70;3.70;;;;;;;8.71;85.83;100222.42;102259;1300;75446;-25
2022/11/13 08:04:48;;;;;;;5.20;3.10;;;;;;;8.58;85.89;100224.20;102220;1299;76684;-25
2022/11/13 08:07:34;;;;;;;4.50;2.80;;;;;;;8.70;86.77;100229.05;102233;1294;75126;-25
2022/11/13 08:10:19;;;;;;;4.50;2.90;;;;;;;9.15;84.00;100225.76;102225;1295;61845;-25
2022/11/13 08:13:07;;;;;;;5.20;2.80;;;;;;;9.18;83.36;100219.49;102150;1294;62790;-25
2022/11/13 08:15:53;;;;;;;3.80;2.30;;;;;;;9.00;84.63;100226.77;102133;1301;76479;-25
2022/11/13 08:18:39;;;;;;;3.80;2.20;;;;;;;8.82;85.69;100227.73;102129;1294;77143;-25
2022/11/13 08:21:24;;;;;;;3.10;2.20;;;;;;;9.27;84.85;100226.09;102191;1301;75286;-25
2022/11/13 08:24:10;;;;;;;3.60;2.10;;;;;;;9.33;83.33;100224.20;102209;1299;62838;-25
2022/11/13 08:26:56;;;;;;;3.30;2.80;;;;;;;9.22;84.06;100221.19;102188;1301;61068;-25
2022/11/13 08:29:42;;;;;;;2.40;2.00;;;;;;;9.03;84.25;100231.79;102122;1299;76269;-25
2022/11/13 08:32:28;;;;;;;2.70;2.00;;;;;;;8.69;86.66;100233.31;102072;1300;76648;-25
2022/11/13 08:35:14;;;;;;;3.70;2.20;;;;;;;9.17;84.83;100240.15;102070;1302;75192;-25
2022/11/13 08:38:05;;;;;;;3.60;2.30;;;;;;;9.28;84.63;100241.13;102193;1301;61059;-25
2022/11/13 08:40:54;;;;;;;4.10;2.40;;;;;;;8.74;86.26;100245.64;102066;1301;61771;-25
2022/11/13 08:43:40;;;;;;;3.60;2.30;;;;;;;8.56;87.24;100248.69;101955;1302;76282;-25
2022/11/13 08:46:26;;;;;;;2.60;2.00;;;;;;;8.38;88.49;100244.97;102222;1301;76719;-25
2022/11/13 08:49:12;;;;;;;2.50;1.60;;;;;;;8.80;87.73;100237.53;102170;1294;74174;-25
2022/11/13 08:51:58;;;;;;;3.00;2.30;;;;;;;9.11;86.90;100240.85;102133;1302;61904;-25
2022/11/13 08:54:43;;;;;;;3.50;2.60;;;;;;;9.01;86.82;100234.16;102124;1285;61820;-25
2022/11/13 08:57:29;;;;;;;3.30;1.90;;;;;;;8.62;87.91;100230.54;102128;1301;76441;-25
2022/11/13 09:00:16;;;;;;;2.90;1.80;;;;;;;8.66;88.18;100230.85;102245;1300;76759;-25
2022/11/13 09:03:02;;;;;;;2.70;1.60;;;;;;;8.98;86.87;100229.61;102130;1302;75282;-25
2022/11/13 09:05:47;;;;;;;2.90;2.10;;;;;;;8.97;87.50;100225.69;102143;1301;62135;-25
2022/11/13 09:08:33;;;;;;;4.70;2.50;;;;;;;8.89;86.87;100225.65;102216;1299;62938;-25
2022/11/13 09:11:19;;;;;;;3.40;1.70;;;;;;;8.73;88.08;100227.55;102099;1298;75416;-25
2022/11/13 09:14:05;;;;;;;2.70;1.80;;;;;;;9.02;87.50;100229.08;102119;1294;75699;-25
2022/11/13 09:16:51;;;;;;;2.70;1.50;;;;;;;9.28;85.93;100225.02;102184;1301;74285;-25
2022/11/13 09:19:36;;;;;;;4.00;2.20;;;;;;;9.26;85.61;100222.88;102151;1301;61171;-25
2022/11/13 09:22:22;;;;;;;2.90;2.20;;;;;;;8.90;87.07;100225.39;102010;1302;62173;-25
2022/11/13 09:25:08;;;;;;;2.20;1.40;;;;;;;8.84;87.94;100221.89;102238;1302;75760;-25
2022/11/13 09:27:55;;;;;;;2.50;1.50;;;;;;;9.19;85.64;100213.02;102154;1300;76845;-25
2022/11/13 09:30:41;;;;;;;2.80;1.80;;;;;;;9.10;86.36;100217.02;102002;1302;75933;-25
2022/11/13 09:33:26;;;;;;;3.70;2.30;;;;;;;9.13;86.84;100217.90;102047;1300;61943;-25
2022/11/13 09:36:13;;;;;;;1.30;1.00;;;;;;;8.58;88.29;100215.38;102146;1294;62761;-26
2022/11/13 09:38:59;;;;;;;2.80;1.60;;;;;;;8.90;88.71;100212.41;102071;1302;75528;-25
2022/11/13 09:41:57;;;;;;;2.00;1.30;;;;;;;9.07;86.83;100202.29;102230;1301;77215;-26
2022/11/13 09:44:53;;;;;;;3.30;1.70;;;;;;;8.97;86.54;100207.34;102056;1294;73548;-27
2022/11/13 09:47:43;;;;;;;3.60;1.40;;;;;;;8.69;87.98;100206.46;102020;1305;61752;-25
2022/11/13 09:50:30;;;;;;;1.30;1.20;;;;;;;8.84;87.98;100206.14;101991;1299;62230;-23
2022/11/13 09:53:16;;;;;;;4.80;1.10;;;;;;;8.93;86.50;100202.92;102132;1302;76365;-24
2022/11/13 09:56:26;;;;;;;2.10;1.30;;;;;;;8.92;87.63;100202.42;102103;1301;75746;-25
2022/11/13 09:59:42;;;;;;;2.90;1.30;;;;;;;8.88;87.87;100195.02;102188;1299;74258;-26
2022/11/13 10:03:05;;;;;;;2.10;1.30;;;;;;;8.85;87.61;100196.42;102220;1302;64644;-25
2022/11/13 10:05:54;;;;;;;1.90;1.20;;;;;;;9.14;86.11;100199.45;102183;1300;61924;-25
2022/11/13 10:08:51;;;;;;;1.60;1.00;;;;;;;9.06;86.32;100199.02;101983;1301;76679;-25
2022/11/13 10:11:45;;;;;;;1.80;1.30;;;;;;;8.97;86.51;100198.19;101870;1302;75894;-25
2022/11/13 10:14:51;;;;;;;2.40;1.10;;;;;;;8.97;87.67;100205.10;101957;1301;74156;-25
2022/11/13 10:18:17;;;;;;;2.20;1.50;;;;;;;9.43;85.72;100203.14;102071;1303;61981;-25
2022/11/13 10:21:16;;;;;;;3.60;1.80;;;;;;;9.38;84.65;100201.23;102196;1292;61767;-24
2022/11/13 10:24:04;;;;;;;2.40;1.80;;;;;;;9.19;86.04;100205.59;101996;1301;75285;-25
2022/11/13 10:26:58;;;;;;;1.70;1.20;;;;;;;9.03;87.12;100205.98;102064;1286;76811;-25
2022/11/13 10:29:43;;;;;;;1.80;1.30;;;;;;;9.43;86.06;100202.70;101974;1296;74212;-25
2022/11/13 10:32:33;;;;;;;2.10;1.30;;;;;;;9.56;85.29;100198.63;102202;1302;62820;-25
2022/11/13 10:35:40;;;;;;;2.00;1.20;;;;;;;9.27;85.84;100195.59;102142;1294;62778;-25
2022/11/13 10:38:34;;;;;;;1.80;1.30;;;;;;;9.09;86.74;100194.90;102235;1301;75694;-25
2022/11/13 10:41:21;;;;;;;1.90;1.40;;;;;;;9.01;87.82;100197.06;102067;1295;75691;-25
2022/11/13 10:44:17;;;;;;;2.00;1.50;;;;;;;9.52;86.01;100194.49;102027;1302;74239;-25
2022/11/13 10:47:16;;;;;;;1.70;1.20;;;;;;;9.53;85.15;100194.09;101961;1304;62985;-25
2022/11/13 10:50:26;;;;;;;2.10;1.40;;;;;;;9.05;87.57;100193.55;102060;1302;62787;-25
2022/11/13 10:53:18;;;;;;;2.80;1.30;;;;;;;8.81;88.80;100197.84;102140;1287;74343;-25
2022/11/13 10:56:26;;;;;;;1.90;1.20;;;;;;;9.37;86.81;100197.79;102026;1301;76670;-25
2022/11/13 10:59:17;;;;;;;1.70;1.20;;;;;;;9.33;85.70;100193.70;101938;1302;75113;-25
2022/11/13 11:02:23;;;;;;;1.40;0.90;;;;;;;8.86;87.41;100189.45;101891;1305;61175;-25
2022/11/13 11:05:18;;;;;;;1.40;1.00;;;;;;;8.71;88.84;100197.02;101941;1302;62982;-25
2022/11/13 11:08:07;;;;;;;1.80;1.00;;;;;;;8.89;87.88;100191.48;102026;1305;75261;-25
2022/11/13 11:14:24;;;;;;;1.30;0.90;;;;;;;9.08;86.95;100193.54;102112;1303;75242;-26
2022/11/13 11:17:10;;;;;;;1.60;1.20;;;;;;;8.67;89.14;100197.05;102212;1294;62082;-25
2022/11/13 11:20:06;;;;;;;1.00;0.70;;;;;;;8.87;89.68;100191.61;101956;1298;61754;-25
2022/11/13 11:22:56;;;;;;;1.50;0.80;;;;;;;9.39;86.78;100189.38;102173;1305;75423;-25
2022/11/13 11:25:53;;;;;;;1.20;1.00;;;;;;;9.18;86.72;100185.55;102107;1302;76241;-25
2022/11/13 11:28:45;;;;;;;1.00;0.70;;;;;;;9.07;88.04;100182.18;102201;1301;75236;-27
2022/11/13 11:31:34;;;;;;;1.10;0.80;;;;;;;9.00;88.50;100180.48;102021;1303;64582;-26
2022/11/13 11:34:47;;;;;;;1.50;1.00;;;;;;;9.25;86.95;100177.70;102094;1300;61657;-25
2022/11/13 11:38:08;;;;;;;1.30;1.00;;;;;;;9.44;85.81;100181.80;102182;1301;76248;-27
2022/11/13 11:41:00;;;;;;;1.10;0.80;;;;;;;9.20;86.68;100180.08;101983;1301;76727;-25
2022/11/13 11:44:24;;;;;;;0.90;0.80;;;;;;;8.87;88.65;100181.72;101951;1303;75327;-24
2022/11/13 11:47:13;;;;;;;1.40;0.90;;;;;;;9.22;87.71;100175.96;102123;1300;62753;-24
2022/11/13 11:50:00;;;;;;;1.90;1.10;;;;;;;9.28;86.43;100170.23;102029;1299;63258;-23
2022/11/13 11:52:54;;;;;;;1.10;0.90;;;;;;;9.20;86.94;100168.66;101968;1303;76301;-24
2022/11/13 11:55:49;;;;;;;0.80;0.80;;;;;;;9.00;88.07;100167.49;101894;1299;76292;-24
2022/11/13 11:58:55;;;;;;;1.60;0.70;;;;;;;9.03;88.13;100158.86;102122;1303;74727;-24
2022/11/13 12:01:41;;;;;;;1.00;0.80;;;;;;;9.32;86.69;100155.61;102222;1299;61730;-24
2022/11/13 12:04:46;;;;;;;1.00;0.80;;;;;;;9.30;86.53;100157.82;102213;1302;61813;-24
2022/11/13 12:07:40;;;;;;;1.50;1.00;;;;;;;9.18;87.38;100155.92;102159;1304;76340;-24
2022/11/13 12:10:45;;;;;;;;;;;;;;;9.03;88.11;100161.98;102025;1294;76713;-24
2022/11/13 12:13:33;;;;;;;1.10;0.80;;;;;;;9.46;86.40;100160.88;101937;1302;73489;-24
2022/11/13 12:16:34;;;;;;;1.50;0.90;;;;;;;9.52;85.54;100156.70;101927;1304;62493;-24
2022/11/13 12:19:42;;;;;;;1.20;0.90;;;;;;;9.39;86.47;100160.41;101998;1294;61785;-24
2022/11/13 12:23:07;;;;;;;2.10;1.30;;;;;;;9.17;87.08;100154.06;102061;1302;75288;-23
2022/11/13 12:26:00;;;;;;;1.20;0.90;;;;;;;9.76;85.63;100153.03;102024;1302;76856;-24
2022/11/13 12:29:01;;;;;;;1.00;0.90;;;;;;;9.53;84.70;100150.97;101941;1297;74518;-24
2022/11/13 12:31:53;;;;;;;2.50;1.10;;;;;;;9.18;86.64;100144.98;102077;1302;62669;-24
2022/11/13 12:34:47;;;;;;;1.40;0.80;;;;;;;8.89;88.00;100142.30;102161;1302;62218;-24
2022/11/13 12:37:49;;;;;;;1.00;0.80;;;;;;;9.17;87.01;100141.07;102119;1300;76308;-24
2022/11/13 12:40:43;;;;;;;1.10;0.90;;;;;;;9.34;85.67;100142.34;101965;1292;76735;-24
2022/11/13 12:43:57;;;;;;;2.50;1.10;;;;;;;9.38;86.35;100144.04;102143;1300;75365;-24
2022/11/13 12:46:43;;;;;;;1.60;1.00;;;;;;;9.30;86.61;100145.48;102097;1305;61836;-23
2022/11/13 12:49:33;;;;;;;1.80;0.90;;;;;;;9.18;87.24;100138.64;101908;1298;63062;-23
2022/11/13 12:52:21;;;;;;;1.60;1.00;;;;;;;9.53;85.73;100141.26;101952;1298;76466;-24
2022/11/13 12:55:26;;;;;;;1.40;1.00;;;;;;;9.48;84.71;100141.55;101975;1300;75666;-24
2022/11/13 12:58:29;;;;;;;2.00;1.10;;;;;;;9.19;86.24;100139.75;102063;1301;74349;-24
2022/11/13 13:01:17;;;;;;;2.50;0.80;;;;;;;9.00;87.73;100136.18;101987;1294;62719;-24
2022/11/13 13:04:32;;;;;;;1.10;0.90;;;;;;;9.26;87.01;100136.23;102002;1300;62980;-24
2022/11/13 13:07:37;;;;;;;1.20;0.90;;;;;;;9.49;84.99;100140.95;102225;1301;76309;-23
2022/11/13 13:10:40;;;;;;;1.10;1.00;;;;;;;9.40;85.65;100132.11;102104;1300;76680;-23
2022/11/13 13:13:51;;;;;;;1.50;1.00;;;;;;;9.15;86.58;100138.09;101949;1288;74311;-24